createdAt,value
2023-05-01T00:00:53.371Z,1.80
2023-05-01T00:03:20.484Z,1.65
2023-05-01T00:05:47.612Z,1.50
2023-05-01T00:08:17.387Z,1.70
2023-05-01T00:10:44.122Z,1.38
2023-05-01T00:13:11.376Z,1.60
2023-05-01T00:15:42.306Z,1.98
2023-05-01T00:18:09.075Z,1.92
2023-05-01T00:20:35.877Z,2.00
2023-05-01T00:23:02.585Z,2.03
2023-05-01T00:25:29.307Z,1.33
2023-05-01T00:27:56.052Z,1.50
2023-05-01T00:30:22.809Z,1.90
2023-05-01T00:32:50.129Z,1.90
2023-05-01T00:35:16.966Z,1.65
2023-05-01T00:37:43.684Z,1.50
2023-05-01T00:40:10.825Z,1.88
2023-05-01T00:42:39.310Z,1.50
2023-05-01T00:45:09.474Z,1.80
2023-05-01T00:47:37.008Z,1.63
2023-05-01T00:50:05.158Z,1.67
2023-05-01T00:52:32.073Z,1.42
2023-05-01T00:54:59.376Z,1.58
2023-05-01T00:57:26.381Z,1.48
2023-05-01T00:59:53.355Z,1.33
2023-05-01T01:02:20.293Z,1.30
2023-05-01T01:04:48.713Z,1.73
2023-05-01T01:07:22.015Z,1.38
2023-05-01T01:10:05.329Z,1.70
2023-05-01T01:12:43.495Z,1.42
2023-05-01T01:15:27.134Z,1.45
2023-05-01T01:18:20.657Z,1.85
2023-05-01T01:20:55.396Z,1.52
2023-05-01T01:23:37.115Z,2.00
2023-05-01T01:29:00.887Z,1.65
2023-05-01T01:31:56.751Z,1.58
2023-05-01T01:34:48.356Z,1.70
2023-05-01T01:37:18.001Z,1.88
2023-05-01T01:40:18.816Z,2.05
2023-05-01T01:42:53.096Z,1.67
2023-05-01T01:45:23.921Z,1.60
2023-05-01T01:47:53.145Z,2.20
2023-05-01T01:50:22.517Z,1.95
2023-05-01T01:52:51.932Z,1.70
2023-05-01T01:55:23.878Z,1.73
2023-05-01T01:57:52.385Z,1.90
2023-05-01T02:00:20.653Z,2.10
2023-05-01T02:02:50.754Z,1.75
2023-05-01T02:05:19.640Z,2.38
2023-05-01T02:07:50.033Z,1.73
2023-05-01T02:10:17.903Z,2.00
2023-05-01T02:12:50.929Z,1.67
2023-05-01T02:15:19.101Z,1.90
2023-05-01T02:17:46.248Z,1.70
2023-05-01T02:20:16.429Z,2.05
2023-05-01T02:22:46.080Z,2.28
2023-05-01T02:25:14.828Z,2.13
2023-05-01T02:27:48.960Z,1.45
2023-05-01T02:30:18.809Z,2.00
2023-05-01T02:32:48.098Z,1.55
2023-05-01T02:35:15.108Z,1.70
2023-05-01T02:37:41.901Z,1.77
2023-05-01T02:40:11.297Z,1.55
2023-05-01T02:42:41.824Z,1.67
2023-05-01T02:45:15.964Z,1.88
2023-05-01T02:47:45.909Z,2.25
2023-05-01T02:50:14.978Z,1.70
2023-05-01T02:52:46.032Z,1.52
2023-05-01T02:55:39.593Z,1.90
2023-05-01T02:58:09.411Z,1.40
2023-05-01T03:00:36.147Z,2.00
2023-05-01T03:03:02.979Z,1.80
2023-05-01T03:05:29.735Z,1.92
2023-05-01T03:07:56.590Z,1.88
2023-05-01T03:10:23.815Z,1.92
2023-05-01T03:12:50.811Z,1.98
2023-05-01T03:15:23.909Z,1.70
2023-05-01T03:17:50.838Z,2.20
2023-05-01T03:20:17.737Z,1.88
2023-05-01T03:22:44.402Z,1.98
2023-05-01T03:25:11.382Z,2.05
2023-05-01T03:27:38.270Z,2.03
2023-05-01T03:30:10.097Z,1.70
2023-05-01T03:32:39.442Z,1.83
2023-05-01T03:35:10.641Z,1.95
2023-05-01T03:37:40.603Z,2.22
2023-05-01T03:40:08.637Z,1.67
2023-05-01T03:42:53.662Z,2.00
2023-05-01T03:45:23.701Z,2.05
2023-05-01T03:47:50.761Z,1.83
2023-05-01T03:50:18.085Z,2.13
2023-05-01T03:52:47.260Z,1.77
2023-05-01T03:55:14.168Z,2.20
2023-05-01T03:57:41.958Z,2.33
2023-05-01T04:00:11.763Z,2.58
2023-05-01T04:02:46.309Z,2.22
2023-05-01T04:05:21.612Z,2.10
2023-05-01T04:07:53.189Z,2.25
2023-05-01T04:10:20.724Z,1.70
2023-05-01T04:12:54.717Z,2.00
2023-05-01T04:15:22.756Z,2.28
2023-05-01T04:17:49.928Z,2.42
2023-05-01T04:20:19.161Z,1.98
2023-05-01T04:22:46.511Z,1.92
2023-05-01T04:25:15.666Z,2.30
2023-05-01T04:27:44.491Z,2.35
2023-05-01T04:30:13.317Z,1.90
2023-05-01T04:32:40.454Z,2.60
2023-05-01T04:35:09.748Z,2.15
2023-05-01T04:37:40.408Z,2.07
2023-05-01T04:40:09.769Z,2.03
2023-05-01T04:42:38.549Z,1.98
2023-05-01T04:45:09.355Z,2.20
2023-05-01T04:47:37.108Z,2.22
2023-05-01T04:50:05.473Z,2.25
2023-05-01T04:52:32.390Z,1.90
2023-05-01T04:55:02.430Z,2.33
2023-05-01T04:57:31.379Z,2.35
2023-05-01T04:59:59.743Z,2.17
2023-05-01T05:02:29.736Z,2.17
2023-05-01T05:04:56.697Z,2.50
2023-05-01T05:07:24.008Z,1.92
2023-05-01T05:10:09.784Z,2.80
2023-05-01T05:12:37.390Z,1.98
2023-05-01T05:15:05.346Z,2.33
2023-05-01T05:17:32.445Z,2.33
2023-05-01T05:19:59.788Z,2.72
2023-05-01T05:22:26.600Z,2.08
2023-05-01T05:25:16.521Z,2.53
2023-05-01T05:27:43.243Z,2.05
2023-05-01T05:30:10.475Z,2.35
2023-05-01T05:32:38.482Z,1.92
2023-05-01T05:35:06.512Z,2.22
2023-05-01T05:37:33.378Z,2.42
2023-05-01T05:40:02.179Z,2.60
2023-05-01T05:42:34.111Z,2.97
2023-05-01T05:45:05.387Z,2.67
2023-05-01T05:47:32.489Z,2.20
2023-05-01T05:49:59.571Z,2.80
2023-05-01T05:52:29.707Z,2.13
2023-05-01T05:54:57.154Z,2.00
2023-05-01T05:57:24.090Z,2.90
2023-05-01T05:59:51.268Z,2.20
2023-05-01T06:02:22.536Z,2.40
2023-05-01T06:04:50.106Z,2.88
2023-05-01T06:07:21.619Z,2.22
2023-05-01T06:09:48.841Z,2.65
2023-05-01T06:12:16.119Z,1.98
2023-05-01T06:14:43.340Z,2.63
2023-05-01T06:17:10.534Z,2.33
2023-05-01T06:19:37.516Z,2.38
2023-05-01T06:22:10.129Z,2.63
2023-05-01T06:24:47.014Z,2.40
2023-05-01T06:27:14.239Z,2.50
2023-05-01T06:29:41.058Z,2.35
2023-05-01T06:32:08.372Z,2.30
2023-05-01T06:34:35.376Z,2.67
2023-05-01T06:37:02.385Z,1.92
2023-05-01T06:39:29.160Z,2.08
2023-05-01T06:41:55.963Z,2.50
2023-05-01T06:44:32.860Z,2.50
2023-05-01T06:47:01.816Z,2.45
2023-05-01T06:49:29.364Z,2.55
2023-05-01T06:51:56.183Z,2.20
2023-05-01T06:54:23.392Z,2.67
2023-05-01T06:56:50.353Z,3.00
2023-05-01T06:59:17.080Z,1.95
2023-05-01T07:01:44.039Z,2.35
2023-05-01T07:04:10.968Z,2.40
2023-05-01T07:06:37.846Z,2.70
2023-05-01T07:09:05.263Z,2.35
2023-05-01T07:11:33.123Z,2.55
2023-05-01T07:14:02.799Z,2.75
2023-05-01T07:16:29.602Z,2.45
2023-05-01T07:18:57.201Z,2.33
2023-05-01T07:21:26.097Z,2.35
2023-05-01T07:23:52.878Z,2.42
2023-05-01T07:26:19.811Z,2.65
2023-05-01T07:28:49.498Z,1.88
2023-05-01T07:31:16.938Z,2.55
2023-05-01T07:33:44.291Z,2.10
2023-05-01T07:36:11.273Z,2.28
2023-05-01T07:38:39.374Z,2.40
2023-05-01T07:41:06.248Z,2.60
2023-05-01T07:43:32.961Z,2.35
2023-05-01T07:46:01.671Z,2.53
2023-05-01T07:48:28.905Z,2.25
2023-05-01T07:50:56.926Z,2.78
2023-05-01T07:53:23.813Z,2.08
2023-05-01T07:55:50.989Z,2.35
2023-05-01T07:58:17.748Z,2.10
2023-05-01T08:00:45.533Z,2.35
2023-05-01T08:03:23.470Z,2.90
2023-05-01T08:05:54.207Z,2.08
2023-05-01T08:08:21.379Z,2.20
2023-05-01T08:10:49.003Z,2.70
2023-05-01T08:13:15.726Z,2.30
2023-05-01T08:15:42.983Z,2.03
2023-05-01T08:18:10.004Z,2.60
2023-05-01T08:20:36.976Z,2.10
2023-05-01T08:23:03.839Z,2.35
2023-05-01T08:25:31.584Z,2.35
2023-05-01T08:27:58.402Z,2.60
2023-05-01T08:30:26.280Z,2.30
2023-05-01T08:32:53.139Z,2.45
2023-05-01T08:35:20.763Z,2.67
2023-05-01T08:37:47.576Z,2.67
2023-05-01T08:40:15.359Z,2.30
2023-05-01T08:42:42.781Z,2.28
2023-05-01T08:45:10.754Z,2.10
2023-05-01T08:47:40.366Z,2.83
2023-05-01T08:50:12.037Z,2.65
2023-05-01T08:52:44.413Z,2.80
2023-05-01T08:55:19.396Z,2.33
2023-05-01T08:57:48.115Z,2.58
2023-05-01T09:00:22.400Z,2.67
2023-05-01T09:02:52.162Z,2.50
2023-05-01T09:05:20.302Z,1.98
2023-05-01T09:07:50.677Z,2.20
2023-05-01T09:10:19.113Z,2.58
2023-05-01T09:12:49.491Z,2.90
2023-05-01T09:15:16.509Z,2.53
2023-05-01T09:17:44.943Z,2.17
2023-05-01T09:20:11.994Z,2.15
2023-05-01T09:22:38.978Z,2.70
2023-05-01T09:25:06.569Z,2.40
2023-05-01T09:27:37.861Z,2.72
2023-05-01T09:30:06.859Z,2.20
2023-05-01T09:32:33.630Z,2.13
2023-05-01T09:35:14.455Z,2.50
2023-05-01T09:37:41.792Z,2.57
2023-05-01T09:40:15.163Z,2.53
2023-05-01T09:42:49.405Z,2.70
2023-05-01T09:45:17.255Z,2.70
2023-05-01T09:47:50.523Z,2.47
2023-05-01T09:50:34.391Z,2.47
2023-05-01T09:53:02.681Z,2.75
2023-05-01T09:55:31.493Z,2.88
2023-05-01T09:57:58.980Z,2.20
2023-05-01T10:00:25.981Z,2.45
2023-05-01T10:02:53.223Z,2.97
2023-05-01T10:05:20.253Z,2.47
2023-05-01T10:08:00.711Z,2.60
2023-05-01T10:10:27.864Z,2.47
2023-05-01T10:12:54.976Z,2.25
2023-05-01T10:15:25.465Z,2.22
2023-05-01T10:17:53.645Z,2.72
2023-05-01T10:20:20.869Z,2.33
2023-05-01T10:22:49.138Z,2.70
2023-05-01T10:25:18.072Z,2.70
2023-05-01T10:27:46.466Z,2.30
2023-05-01T10:30:17.370Z,2.72
2023-05-01T10:32:44.177Z,2.28
2023-05-01T10:35:23.905Z,2.40
2023-05-01T10:37:59.565Z,2.45
2023-05-01T10:40:45.094Z,2.97
2023-05-01T10:43:26.081Z,2.60
2023-05-01T10:45:54.221Z,2.60
2023-05-01T10:48:45.339Z,2.28
2023-05-01T10:51:22.384Z,2.50
2023-05-01T10:54:14.689Z,2.60
2023-05-01T10:56:44.627Z,2.47
2023-05-01T10:59:13.079Z,3.03
2023-05-01T11:01:41.378Z,2.60
2023-05-01T11:04:22.358Z,2.20
2023-05-01T11:07:11.192Z,2.20
2023-05-01T11:09:57.507Z,2.38
2023-05-01T11:12:46.218Z,2.47
2023-05-01T11:15:26.712Z,2.38
2023-05-01T11:17:54.450Z,2.50
2023-05-01T11:20:27.619Z,2.58
2023-05-01T11:22:58.415Z,2.28
2023-05-01T11:25:33.588Z,2.47
2023-05-01T11:28:02.406Z,2.50
2023-05-01T11:30:39.177Z,2.60
2023-05-01T11:33:09.179Z,2.53
2023-05-01T11:35:38.679Z,2.30
2023-05-01T11:38:05.598Z,2.97
2023-05-01T11:40:34.865Z,2.60
2023-05-01T11:43:06.983Z,2.78
2023-05-01T11:45:35.613Z,2.45
2023-05-01T11:48:04.518Z,2.50
2023-05-01T11:50:37.182Z,2.95
2023-05-01T11:53:11.713Z,2.45
2023-05-01T11:55:38.818Z,2.42
2023-05-01T11:58:06.207Z,2.47
2023-05-01T12:00:36.942Z,2.97
2023-05-01T12:03:12.655Z,2.47
2023-05-01T12:05:42.753Z,1.95
2023-05-01T12:08:16.517Z,2.30
2023-05-01T12:10:44.291Z,3.10
2023-05-01T12:13:13.549Z,2.20
2023-05-01T12:15:47.292Z,2.28
2023-05-01T12:18:15.966Z,2.55
2023-05-01T12:20:43.833Z,2.85
2023-05-01T12:23:16.337Z,2.50
2023-05-01T12:25:45.137Z,2.22
2023-05-01T12:28:14.952Z,2.50
2023-05-01T12:30:46.165Z,2.63
2023-05-01T12:33:16.877Z,3.28
2023-05-01T12:35:46.561Z,2.70
2023-05-01T12:38:23.708Z,2.58
2023-05-01T12:40:54.099Z,1.88
2023-05-01T12:43:34.487Z,2.58
2023-05-01T12:46:02.225Z,2.20
2023-05-01T12:48:30.503Z,2.95
2023-05-01T12:50:57.658Z,2.35
2023-05-01T12:53:25.869Z,2.30
2023-05-01T12:55:56.795Z,2.50
2023-05-01T12:58:24.811Z,2.53
2023-05-01T13:00:53.605Z,2.55
2023-05-01T13:03:24.244Z,2.72
2023-05-01T13:05:59.446Z,2.60
2023-05-01T13:08:31.244Z,2.45
2023-05-01T13:11:01.012Z,2.50
2023-05-01T13:13:31.357Z,2.17
2023-05-01T13:16:16.012Z,2.67
2023-05-01T13:18:51.309Z,2.70
2023-05-01T13:21:21.248Z,2.72
2023-05-01T13:23:56.414Z,3.00
2023-05-01T13:26:35.382Z,2.40
2023-05-01T13:29:05.867Z,3.15
2023-05-01T13:31:33.085Z,2.60
2023-05-01T13:34:00.288Z,2.40
2023-05-01T13:36:33.144Z,2.50
2023-05-01T13:39:00.141Z,2.60
2023-05-01T13:41:28.003Z,2.53
2023-05-01T13:43:57.124Z,2.13
2023-05-01T13:46:25.625Z,2.05
2023-05-01T13:48:52.509Z,2.90
2023-05-01T13:51:24.195Z,2.40
2023-05-01T13:53:53.445Z,2.25
2023-05-01T13:56:22.753Z,2.35
2023-05-01T13:58:50.427Z,2.42
2023-05-01T14:01:20.715Z,2.15
2023-05-01T14:03:48.474Z,2.78
2023-05-01T14:06:17.556Z,1.98
2023-05-01T14:08:46.856Z,2.20
2023-05-01T14:11:14.336Z,2.38
2023-05-01T14:13:45.860Z,2.33
2023-05-01T14:16:25.263Z,2.20
2023-05-01T14:18:55.289Z,1.90
2023-05-01T14:21:23.962Z,1.83
2023-05-01T14:26:26.059Z,2.50
2023-05-01T14:31:30.353Z,2.17
2023-05-01T14:34:03.733Z,1.85
2023-05-01T14:36:33.839Z,2.03
2023-05-01T14:39:02.206Z,2.38
2023-05-01T14:41:30.011Z,2.15
2023-05-01T14:43:57.153Z,2.15
2023-05-01T14:46:31.696Z,2.03
2023-05-01T14:49:00.296Z,1.63
2023-05-01T14:51:28.522Z,1.83
2023-05-01T14:53:55.535Z,1.80
2023-05-01T14:56:23.061Z,1.70
2023-05-01T14:58:50.375Z,1.75
2023-05-01T15:01:18.137Z,1.75
2023-05-01T15:03:46.666Z,1.80
2023-05-01T15:06:13.608Z,1.70
2023-05-01T15:08:40.403Z,1.75
2023-05-01T15:11:07.665Z,1.98
2023-05-01T15:13:34.688Z,1.40
2023-05-01T15:16:01.728Z,2.05
2023-05-01T15:18:28.532Z,1.63
2023-05-01T15:20:55.593Z,1.85
2023-05-01T15:23:22.877Z,2.00
2023-05-01T15:25:50.638Z,1.70
2023-05-01T15:28:19.574Z,1.48
2023-05-01T15:30:47.378Z,1.45
2023-05-01T15:33:17.767Z,2.10
2023-05-01T15:38:12.981Z,1.33
2023-05-01T15:40:39.781Z,1.42
2023-05-01T15:43:06.695Z,1.67
2023-05-01T15:45:33.621Z,1.88
2023-05-01T15:48:01.075Z,1.88
2023-05-01T15:50:28.370Z,1.90
2023-05-01T15:52:55.120Z,1.75
2023-05-01T15:55:22.352Z,1.40
2023-05-01T15:57:49.941Z,1.95
2023-05-01T16:00:17.203Z,2.13
2023-05-01T16:02:44.734Z,1.92
2023-05-01T16:05:14.133Z,2.00
2023-05-01T16:07:42.931Z,1.88
2023-05-01T16:10:10.567Z,1.90
2023-05-01T16:12:37.678Z,2.45
2023-05-01T16:15:05.342Z,1.80
2023-05-01T16:17:34.855Z,2.05
2023-05-01T16:20:02.569Z,1.92
2023-05-01T16:22:29.578Z,2.47
2023-05-01T16:24:59.448Z,2.08
2023-05-01T16:27:26.175Z,1.80
2023-05-01T16:29:53.124Z,2.40
2023-05-01T16:32:20.781Z,1.75
2023-05-01T16:34:49.289Z,2.40
2023-05-01T16:37:17.493Z,2.10
2023-05-01T16:39:44.236Z,2.08
2023-05-01T16:42:14.727Z,2.40
2023-05-01T16:44:41.440Z,2.37
2023-05-01T16:47:11.753Z,2.10
2023-05-01T16:49:41.804Z,2.70
2023-05-01T16:52:13.370Z,2.05
2023-05-01T16:54:40.409Z,2.55
2023-05-01T16:57:08.550Z,2.70
2023-05-01T16:59:35.445Z,2.65
2023-05-01T17:02:02.220Z,2.60
2023-05-01T17:04:29.418Z,2.38
2023-05-01T17:06:58.379Z,2.45
2023-05-01T17:09:25.350Z,2.63
2023-05-01T17:11:57.481Z,2.58
2023-05-01T17:14:24.548Z,2.67
2023-05-01T17:16:51.534Z,2.20
2023-05-01T17:19:18.706Z,2.35
2023-05-01T17:21:45.884Z,2.53
2023-05-01T17:24:13.890Z,2.20
2023-05-01T17:26:40.691Z,3.10
2023-05-01T17:29:07.485Z,2.72
2023-05-01T17:31:34.567Z,2.80
2023-05-01T17:34:01.510Z,3.20
2023-05-01T17:36:29.101Z,2.65
2023-05-01T17:39:01.273Z,2.58
2023-05-01T17:41:28.066Z,2.92
2023-05-01T17:43:55.211Z,2.63
2023-05-01T17:46:25.322Z,2.85
2023-05-01T17:48:52.334Z,2.90
2023-05-01T17:51:19.628Z,2.63
2023-05-01T17:53:46.493Z,2.80
2023-05-01T17:56:13.245Z,2.95
2023-05-01T17:58:40.829Z,2.50
2023-05-01T18:01:07.745Z,2.20
2023-05-01T18:03:34.683Z,2.92
2023-05-01T18:06:02.373Z,2.50
2023-05-01T18:08:29.550Z,2.50
2023-05-01T18:10:56.578Z,2.60
2023-05-01T18:13:27.980Z,2.70
2023-05-01T18:18:22.354Z,2.40
2023-05-01T18:20:49.186Z,2.45
2023-05-01T18:23:18.562Z,2.35
2023-05-01T18:25:46.351Z,2.55
2023-05-01T18:28:16.170Z,2.47
2023-05-01T18:30:43.204Z,2.85
2023-05-01T18:33:10.195Z,2.72
2023-05-01T18:35:42.114Z,2.47
2023-05-01T18:38:09.983Z,2.30
2023-05-01T18:40:37.555Z,2.15
2023-05-01T18:43:04.373Z,2.63
2023-05-01T18:45:31.302Z,2.72
2023-05-01T18:48:00.597Z,2.55
2023-05-01T18:50:27.687Z,2.67
2023-05-01T18:52:54.652Z,2.72
2023-05-01T18:55:21.521Z,2.72
2023-05-01T18:57:49.931Z,2.65
2023-05-01T19:00:18.362Z,2.22
2023-05-01T19:02:51.139Z,2.28
2023-05-01T19:05:19.415Z,2.58
2023-05-01T19:07:46.604Z,2.40
2023-05-01T19:10:13.509Z,2.90
2023-05-01T19:12:41.272Z,2.40
2023-05-01T19:15:08.915Z,2.50
2023-05-01T19:17:36.404Z,2.42
2023-05-01T19:20:04.672Z,2.30
2023-05-01T19:22:33.581Z,2.50
2023-05-01T19:25:00.562Z,3.00
2023-05-01T19:27:27.571Z,2.45
2023-05-01T19:29:54.662Z,2.38
2023-05-01T19:32:22.957Z,2.80
2023-05-01T19:34:50.013Z,2.38
2023-05-01T19:37:16.929Z,2.60
2023-05-01T19:39:43.675Z,2.33
2023-05-01T19:42:10.554Z,3.05
2023-05-01T19:44:37.259Z,2.28
2023-05-01T19:47:04.259Z,2.15
2023-05-01T19:49:31.028Z,2.25
2023-05-01T19:51:57.799Z,2.58
2023-05-01T19:54:28.527Z,2.72
2023-05-01T19:56:56.109Z,2.47
2023-05-01T19:59:23.331Z,3.10
2023-05-01T20:01:50.147Z,2.65
2023-05-01T20:04:17.201Z,2.80
2023-05-01T20:06:44.031Z,3.00
2023-05-01T20:09:10.893Z,2.40
2023-05-01T20:11:37.657Z,2.65
2023-05-01T20:14:04.440Z,2.95
2023-05-01T20:19:27.817Z,2.92
2023-05-01T20:21:57.079Z,3.03
2023-05-01T20:24:24.996Z,2.78
2023-05-01T20:26:55.851Z,3.20
2023-05-01T20:29:22.715Z,3.28
2023-05-01T20:31:51.512Z,3.15
2023-05-01T20:34:19.497Z,3.80
2023-05-01T20:36:46.371Z,3.25
2023-05-01T20:39:13.105Z,3.00
2023-05-01T20:41:39.803Z,3.33
2023-05-01T20:44:07.065Z,2.83
2023-05-01T20:46:33.883Z,2.90
2023-05-01T20:49:01.496Z,3.15
2023-05-01T20:51:28.402Z,2.80
2023-05-01T20:53:55.725Z,3.85
2023-05-01T20:56:23.682Z,2.75
2023-05-01T20:58:50.438Z,3.15
2023-05-01T21:01:17.539Z,2.72
2023-05-01T21:03:44.544Z,2.70
2023-05-01T21:06:11.498Z,2.80
2023-05-01T21:08:38.304Z,2.83
2023-05-01T21:11:05.958Z,3.10
2023-05-01T21:13:33.020Z,3.45
2023-05-01T21:16:00.279Z,3.05
2023-05-01T21:18:32.319Z,3.65
2023-05-01T21:21:01.703Z,3.25
2023-05-01T21:23:31.092Z,3.05
2023-05-01T21:25:57.948Z,2.95
2023-05-01T21:28:24.868Z,3.03
2023-05-01T21:30:51.805Z,3.53
2023-05-01T21:33:19.038Z,3.55
2023-05-01T21:35:46.694Z,3.05
2023-05-01T21:38:14.365Z,3.60
2023-05-01T21:40:42.376Z,3.95
2023-05-01T21:43:09.467Z,3.42
2023-05-01T21:45:40.611Z,4.18
2023-05-01T21:48:09.329Z,3.97
2023-05-01T21:50:38.415Z,4.10
2023-05-01T21:53:08.577Z,4.55
2023-05-01T21:55:35.425Z,4.50
2023-05-01T21:58:02.410Z,4.18
2023-05-01T22:00:29.973Z,4.38
2023-05-01T22:02:57.292Z,4.47
2023-05-01T22:06:15.566Z,4.70
2023-05-01T22:08:40.775Z,5.15
2023-05-01T22:11:08.549Z,3.85
2023-05-01T22:13:35.454Z,4.15
2023-05-01T22:16:02.288Z,4.25
2023-05-01T22:18:29.178Z,4.43
2023-05-01T22:20:55.986Z,4.55
2023-05-01T22:23:25.895Z,4.82
2023-05-01T22:26:02.066Z,4.40
2023-05-01T22:28:29.052Z,3.75
2023-05-01T22:30:55.989Z,4.30
2023-05-01T22:33:22.782Z,4.72
2023-05-01T22:35:49.559Z,4.13
2023-05-01T22:38:16.347Z,4.72
2023-05-01T22:40:43.119Z,4.60
2023-05-01T22:43:10.411Z,3.97
2023-05-01T22:45:37.132Z,4.53
2023-05-01T22:48:04.219Z,4.40
2023-05-01T22:50:33.264Z,4.10
2023-05-01T22:53:00.538Z,4.63
2023-05-01T22:55:27.285Z,4.63
2023-05-01T22:57:54.072Z,3.85
2023-05-01T23:00:22.163Z,4.75
2023-05-01T23:02:49.031Z,4.63
2023-05-01T23:05:16.675Z,3.92
2023-05-01T23:07:44.137Z,4.50
2023-05-01T23:10:11.350Z,4.22
2023-05-01T23:12:43.764Z,4.03
2023-05-01T23:15:17.073Z,4.35
2023-05-01T23:17:44.513Z,4.32
2023-05-01T23:20:18.733Z,4.75
2023-05-01T23:22:49.278Z,4.18
2023-05-01T23:25:25.597Z,4.40
2023-05-01T23:27:54.765Z,3.92
2023-05-01T23:30:22.244Z,3.72
2023-05-01T23:32:49.376Z,4.15
2023-05-01T23:35:20.800Z,3.85
2023-05-01T23:37:47.695Z,4.50
2023-05-01T23:40:14.388Z,3.30
2023-05-01T23:42:41.188Z,4.40
2023-05-01T23:45:09.468Z,4.38
2023-05-01T23:47:37.359Z,3.92
2023-05-01T23:50:04.707Z,4.18
2023-05-01T23:52:32.018Z,4.65
2023-05-01T23:54:58.729Z,4.97
2023-05-01T23:57:25.786Z,4.38
2023-05-01T23:59:52.654Z,4.40
